Aktuální počasí v Česku a ve světě - METAR

Seznam meteostanic umístěných nejčasteji na letišti v ČR a ve světě

Vyhledat místa podle abecedy:
A B C D E F G H I J K L M N O P Q R S T U V W X Y Z

Filtrovat:

ID stanice:
a/nebo
Název místa (fulltext):
 
Místo (ID)Naposledy načteno 
Kadaň - Tušimice (Tusimice) 24.09.2020 08:00 UTC Zobrazit data
Místo: Kadaň - Tušimice
Teplota: 17 °C (pocitová: 14.9 °C)
Vítr: 4 m/s z(e) 260°
Počasí: oblačno
Dohlednost: 10 km
Zákl. oblačnosti: 3/8 3300 m
Vlhkost: 73%
Karlovy Vary (K.Vary) 24.09.2020 08:00 UTC Zobrazit data
Místo: Karlovy Vary
Teplota: 15 °C (pocitová: 14.1 °C)
Vítr: 1 m/s z(e) 320°
Počasí: oblačno
Dohlednost: 15 km
Zákl. oblačnosti: 1/8 300 m;3/8 1350 m
Vlhkost: 88%
Kocelovice (Kocelovice) 24.09.2020 08:00 UTC Zobrazit data
Místo: Kocelovice
Teplota: 16 °C (pocitová: 15.3 °C)
Vítr: 1 m/s z(e) 0°
Počasí: skoro zataženo
Dohlednost: 40 km
Zákl. oblačnosti: 1/8 1500 m;5/8 8400 m
Vlhkost: 77%
Kopisty (Kopisty) 24.09.2020 06:00 UTC Zobrazit data
Místo: Kopisty
Teplota: 11 °C (pocitová: 20 °C)
Vítr: 0 m/s z(e) 0°
Počasí: zataženo
Dohlednost: 5 km
Zákl. oblačnosti: 6/8 6000 m
Vlhkost: 100%
Kostelní Myslová (K.Myslova) 24.09.2020 08:00 UTC Zobrazit data
Místo: Kostelní Myslová
Teplota: 16 °C (pocitová: 15.3 °C)
Vítr: 1 m/s z(e) 0°
Počasí: skorojasno
Dohlednost: 20 km
Zákl. oblačnosti: 2/8 7800 m
Vlhkost: 83%
Křešín - Kramolín (Kramolin) 24.09.2020 08:00 UTC Zobrazit data
Místo: Křešín - Kramolín
Teplota: 18 °C (pocitová: 16.3 °C)
Vítr: 4 m/s z(e) 200°
Počasí: skorojasno
Dohlednost: 30 km
Zákl. oblačnosti: 1/8 8400 m
Vlhkost: 73%
Kuchařovice - Znojmo (Kucharovic) 24.09.2020 08:00 UTC Zobrazit data
Místo: Kuchařovice - Znojmo
Teplota: 20 °C (pocitová: 19.8 °C)
Vítr: 2 m/s z(e) 240°
Počasí: skorojasno
Dohlednost: 30 km
Zákl. oblačnosti: 2/8 9000 m
Vlhkost: 69%
Kabul (OAKB) 24.09.2020 07:50 UTC Zobrazit METAR
OAKB 240750Z VRB04KT 8000 NSC 26/M06 Q1017 RMK A3005 BLU BLU
Kajaani (EFKI) 24.09.2020 07:50 UTC Zobrazit METAR
EFKI 240750Z AUTO VRB02KT 9999 SCT009 OVC030 13/11 Q1005
Kardla (EEKA) 24.09.2020 06:50 UTC Zobrazit METAR
EEKA 240650Z 16009KT CAVOK 17/14 Q1004
Karlsruhe/ Baden-Baden (EDSB) 24.09.2020 07:50 UTC Zobrazit METAR
EDSB 240750Z VRB04KT 9999 SCT043 17/11 Q1009
Karup (EKKA) 24.09.2020 07:50 UTC Zobrazit METAR
EKKA 240750Z AUTO 21016KT 9999 FEW025/// 15/10 Q0993 TEMPO 20020G32KT
Kathmandu (VNKT) 24.09.2020 07:50 UTC Zobrazit METAR
VNKT 240750Z 08006KT 5000 RA FEW008 SCT030 OVC090 21/20 Q1013 NOSIG
Katowice (EPKT) 24.09.2020 08:00 UTC Zobrazit METAR
EPKT 240800Z 21012KT 9999 FEW016 18/15 Q1008
Kaunas (EYKA) 24.09.2020 07:50 UTC Zobrazit METAR
EYKA 240750Z 16008KT 110V200 CAVOK 17/11 Q1008
Kavala (LGKV) 24.09.2020 07:50 UTC Zobrazit METAR
LGKV 240750Z 00000KT 9999 FEW008 24/19 Q1011
Kazan (UWKD) Zatím nenačteno  
Kefallinia (LGKF) 24.09.2020 07:50 UTC Zobrazit METAR
LGKF 240750Z 14005KT 9999 FEW012 SCT018 BKN070 24/21 Q1014
Kemi (EFKE) 24.09.2020 07:50 UTC Zobrazit METAR
EFKE 240750Z AUTO 36006KT 9999 OVC048/// 09/06 Q1004
Kerkira (LGKR) 24.09.2020 07:50 UTC Zobrazit METAR
LGKR 240750Z /////KT 9999 FEW020 SCT035 23/19 Q1013 NOSIG
Kerry (EIKY) 24.09.2020 08:00 UTC Zobrazit METAR
EIKY 240800Z 26015KT 9999 -RA FEW012 OVC015 09/08 Q0985
Khartoum (HSSS) 24.09.2020 08:00 UTC Zobrazit METAR
HSSS 240800Z 20006KT CAVOK 34/20 Q1010 NOSIG
Kigali (HRYR) 24.09.2020 08:00 UTC Zobrazit METAR
HRYR 240800Z 16009KT 9999 SCT025 SCT100 24/16 Q1023 NOSIG
Kingston (MKJP) 23.09.2020 17:00 UTC Zobrazit METAR
MKJP 231700Z 14014KT 9999 FEW018 32/24 Q1012
Kingstown (TVSV) 13.12.2019 20:43 UTC Zobrazit METAR
TVSV 132043Z 12005G18KT 4000 SHRA BKN014 27/23 Q1010
Kinshasa (FZAA) 24.09.2020 08:00 UTC Zobrazit METAR
FZAA 240800Z 26006KT 7000 FEW018 BKN100 26/19 Q1016 NOSIG
Kittila (EFKT) 24.09.2020 07:50 UTC Zobrazit METAR
EFKT 240750Z AUTO 30007KT 260V350 CAVOK 08/M01 Q1003
Klagenfurt (LOWK) 24.09.2020 07:50 UTC Zobrazit METAR
LOWK 240750Z VRB02KT 9999 FEW004 BKN008 BKN015 15/13 Q1013 BECMG SCT020
Kortrijk-Wevelgem (EBKT) Zatím nenačteno  
Kosice (LZKZ) 24.09.2020 08:00 UTC Zobrazit METAR
LZKZ 240800Z VRB02KT CAVOK 19/14 Q1011 NOSIG
Krakow (EPKK) 24.09.2020 08:00 UTC Zobrazit METAR
EPKK 240800Z 19003KT 150V230 CAVOK 19/16 Q1009
Kuala Lumpur (WMKK) 24.09.2020 08:00 UTC Zobrazit METAR
WMKK 240800Z VRB05KT 9999 FEW018 32/22 Q1009 NOSIG
Kuopio (EFKU) 24.09.2020 05:50 UTC Zobrazit METAR
EFKU 240550Z 13004KT 090V160 4000 BR BKN004 11/11 Q1005
Kuressaare (EEKE) 24.09.2020 07:50 UTC Zobrazit METAR
EEKE 240750Z 15007KT CAVOK 16/14 Q1005
Kuwait (OKBK) 24.09.2020 08:00 UTC Zobrazit METAR
OKBK 240800Z 36015KT CAVOK 41/05 Q1007 NOSIG
Kyiv (UKBB) Zatím nenačteno  
Reklama

Počasí na Váš email

Emaily jsou bez reklamy a bez spamu



Odhlásit newsletter




Další české internetové stránky (nejen) o počasí najdete v katalogu TOPlist - weby o počasí nebo vyhledejte na internetu, co jste tu na 🌞 Slunečnu ⛅ zatím nenašli:
⭐ Přidat Slunečno.cz do oblíbených | 🏠 Nastavit Slunečno.cz jako HOMEPAGE

⬆️ Posunout stránku nahoru ⬆️
Reklama